createdAt,value
2022-11-22T00:00:44.434Z,12.89
2022-11-22T00:03:11.831Z,13.01
2022-11-22T00:05:39.226Z,13.03
2022-11-22T00:08:06.581Z,13.27
2022-11-22T00:10:34.152Z,13.52
2022-11-22T00:13:01.492Z,13.49
2022-11-22T00:15:29.690Z,13.37
2022-11-22T00:17:57.121Z,13.39
2022-11-22T00:20:24.449Z,13.45
2022-11-22T00:22:51.775Z,13.42
2022-11-22T00:25:19.089Z,13.41
2022-11-22T00:27:46.272Z,13.32
2022-11-22T00:30:13.555Z,13.35
2022-11-22T00:32:40.742Z,13.20
2022-11-22T00:35:08.431Z,13.20
2022-11-22T00:37:38.120Z,13.09
2022-11-22T00:40:06.547Z,13.36
2022-11-22T00:42:33.719Z,13.14
2022-11-22T00:45:00.894Z,13.19
2022-11-22T00:47:28.188Z,13.27
2022-11-22T00:49:55.433Z,13.09
2022-11-22T00:52:23.643Z,13.19
2022-11-22T00:54:54.736Z,13.04
2022-11-22T00:57:23.948Z,12.96
2022-11-22T00:59:51.143Z,13.02
2022-11-22T01:02:18.501Z,13.07
2022-11-22T01:04:45.755Z,13.03
2022-11-22T01:07:13.304Z,13.01
2022-11-22T01:09:40.542Z,13.09
2022-11-22T01:12:07.828Z,13.13
2022-11-22T01:14:35.120Z,13.06
2022-11-22T01:17:02.359Z,13.18
2022-11-22T01:19:29.848Z,13.09
2022-11-22T01:21:57.398Z,13.15
2022-11-22T01:24:24.683Z,13.18
2022-11-22T01:26:51.951Z,13.23
2022-11-22T01:29:19.263Z,13.23
2022-11-22T01:31:46.492Z,13.03
2022-11-22T01:34:13.785Z,13.22
2022-11-22T01:36:40.904Z,13.12
2022-11-22T01:39:08.200Z,13.23
2022-11-22T01:41:35.642Z,13.28
2022-11-22T01:44:22.550Z,13.32
2022-11-22T01:46:53.687Z,13.40
2022-11-22T01:49:29.481Z,13.26
2022-11-22T01:52:02.168Z,13.19
2022-11-22T01:54:33.243Z,13.24
2022-11-22T01:57:05.330Z,13.32
2022-11-22T01:59:34.242Z,13.35
2022-11-22T02:02:02.102Z,13.43
2022-11-22T02:04:30.612Z,13.40
2022-11-22T02:07:25.491Z,13.42
2022-11-22T02:09:53.273Z,13.32
2022-11-22T02:12:24.133Z,13.37
2022-11-22T02:14:52.081Z,13.45
2022-11-22T02:17:19.243Z,13.43
2022-11-22T02:19:48.413Z,13.32
2022-11-22T02:22:30.901Z,13.37
2022-11-22T02:25:20.165Z,13.42
2022-11-22T02:27:48.007Z,13.44
2022-11-22T02:30:15.535Z,13.40
2022-11-22T02:32:42.879Z,13.32
2022-11-22T02:35:29.027Z,13.26
2022-11-22T02:38:02.492Z,13.22
2022-11-22T02:40:32.899Z,13.31
2022-11-22T02:43:03.592Z,13.21
2022-11-22T02:45:30.967Z,13.19
2022-11-22T02:48:08.228Z,13.21
2022-11-22T02:50:35.595Z,13.31
2022-11-22T02:53:02.823Z,13.11
2022-11-22T02:55:30.115Z,13.03
2022-11-22T02:57:57.371Z,13.14
2022-11-22T03:00:24.740Z,13.17
2022-11-22T03:02:52.119Z,13.19
2022-11-22T03:05:19.343Z,13.10
2022-11-22T03:07:46.605Z,13.22
2022-11-22T03:10:14.004Z,13.33
2022-11-22T03:12:41.171Z,13.27
2022-11-22T03:15:08.805Z,13.39
2022-11-22T03:17:36.047Z,13.08
2022-11-22T03:20:04.204Z,12.82
2022-11-22T03:22:31.919Z,13.05
2022-11-22T03:24:59.505Z,13.25
2022-11-22T03:27:26.677Z,13.41
2022-11-22T03:29:53.889Z,13.25
2022-11-22T03:32:21.119Z,13.41
2022-11-22T03:34:48.490Z,13.28
2022-11-22T03:37:15.656Z,13.31
2022-11-22T03:39:43.173Z,13.21
2022-11-22T03:42:10.414Z,13.26
2022-11-22T03:44:37.667Z,13.33
2022-11-22T03:47:04.889Z,13.38
2022-11-22T03:49:32.568Z,13.43
2022-11-22T03:51:59.960Z,13.42
2022-11-22T03:54:27.149Z,13.32
2022-11-22T03:56:54.342Z,13.52
2022-11-22T03:59:21.734Z,13.66
2022-11-22T04:01:49.224Z,13.63
2022-11-22T04:04:16.581Z,13.65
2022-11-22T04:06:43.864Z,13.63
2022-11-22T04:09:11.263Z,13.66
2022-11-22T04:11:38.569Z,13.64
2022-11-22T04:14:24.336Z,13.70
2022-11-22T04:16:51.568Z,13.60
2022-11-22T04:19:18.876Z,13.51
2022-11-22T04:21:46.152Z,13.68
2022-11-22T04:24:31.877Z,13.61
2022-11-22T04:26:59.174Z,13.56
2022-11-22T04:29:26.384Z,13.63
2022-11-22T04:32:12.083Z,13.41
2022-11-22T04:34:39.308Z,13.62
2022-11-22T04:37:06.720Z,13.61
2022-11-22T04:39:34.215Z,13.76
2022-11-22T04:42:20.031Z,13.71
2022-11-22T04:44:47.386Z,13.67
2022-11-22T04:47:39.190Z,13.69
2022-11-22T04:50:28.693Z,13.53
2022-11-22T04:52:57.392Z,13.60
2022-11-22T04:55:25.011Z,13.74
2022-11-22T04:57:58.871Z,13.63
2022-11-22T05:00:28.484Z,13.74
2022-11-22T05:02:56.516Z,13.86
2022-11-22T05:05:24.550Z,13.84
2022-11-22T05:07:51.945Z,13.75
2022-11-22T05:10:25.789Z,13.73
2022-11-22T05:12:53.911Z,13.85
2022-11-22T05:15:21.172Z,13.87
2022-11-22T05:17:48.633Z,13.85
2022-11-22T05:20:15.901Z,13.80
2022-11-22T05:23:01.362Z,13.88
2022-11-22T05:25:28.892Z,13.85
2022-11-22T05:27:56.164Z,13.87
2022-11-22T05:30:23.422Z,13.93
2022-11-22T05:32:50.815Z,13.58
2022-11-22T05:35:18.126Z,13.72
2022-11-22T05:37:45.561Z,13.87
2022-11-22T05:40:13.125Z,13.84
2022-11-22T05:42:40.642Z,13.91
2022-11-22T05:45:08.719Z,13.75
2022-11-22T05:47:36.496Z,13.82
2022-11-22T05:50:04.166Z,13.86
2022-11-22T05:52:31.744Z,13.59
2022-11-22T05:54:59.000Z,13.67
2022-11-22T05:57:26.597Z,13.73
2022-11-22T05:59:54.507Z,13.62
2022-11-22T06:02:21.719Z,13.24
2022-11-22T06:04:49.127Z,13.50
2022-11-22T06:07:16.303Z,13.49
2022-11-22T06:09:43.614Z,13.45
2022-11-22T06:12:10.793Z,13.67
2022-11-22T06:14:42.926Z,13.76
2022-11-22T06:17:11.363Z,13.75
2022-11-22T06:19:38.510Z,13.80
2022-11-22T06:22:06.179Z,13.68
2022-11-22T06:24:33.367Z,13.76
2022-11-22T06:27:00.680Z,13.93
2022-11-22T06:29:28.025Z,13.84
2022-11-22T06:32:01.913Z,13.83
2022-11-22T06:34:30.643Z,13.74
2022-11-22T06:36:57.911Z,13.94
2022-11-22T06:39:25.103Z,13.85
2022-11-22T06:41:52.323Z,13.39
2022-11-22T06:44:19.592Z,13.69
2022-11-22T06:46:46.764Z,13.78
2022-11-22T06:49:15.062Z,13.82
2022-11-22T06:51:42.218Z,13.92
2022-11-22T06:54:12.448Z,14.03
2022-11-22T06:56:39.930Z,14.01
2022-11-22T06:59:07.775Z,14.00
2022-11-22T07:01:37.371Z,14.06
2022-11-22T07:04:05.430Z,13.99
2022-11-22T07:06:34.632Z,13.98
2022-11-22T07:09:04.217Z,13.67
2022-11-22T07:11:32.110Z,14.01
2022-11-22T07:14:07.808Z,13.87
2022-11-22T07:16:39.180Z,13.97
2022-11-22T07:19:07.231Z,14.29
2022-11-22T07:21:35.031Z,14.15
2022-11-22T07:24:04.152Z,13.90
2022-11-22T07:26:31.451Z,14.14
2022-11-22T07:28:58.868Z,14.00
2022-11-22T07:31:26.544Z,14.12
2022-11-22T07:33:55.739Z,13.90
2022-11-22T07:36:23.403Z,12.64
2022-11-22T07:38:51.005Z,12.94
2022-11-22T07:41:19.712Z,12.56
2022-11-22T07:43:47.370Z,12.72
2022-11-22T07:46:19.817Z,12.39
2022-11-22T07:48:49.541Z,12.59
2022-11-22T07:51:16.997Z,12.59
2022-11-22T07:53:44.331Z,13.30
2022-11-22T07:56:11.555Z,13.02
2022-11-22T07:58:38.976Z,12.74
2022-11-22T08:01:09.155Z,13.18
2022-11-22T08:03:37.258Z,12.88
2022-11-22T08:06:06.543Z,13.07
2022-11-22T08:08:34.824Z,13.21
2022-11-22T08:11:02.341Z,13.48
2022-11-22T08:13:29.651Z,12.80
2022-11-22T08:16:05.056Z,12.92
2022-11-22T08:18:34.909Z,13.06
2022-11-22T08:21:04.182Z,13.21
2022-11-22T08:23:31.638Z,13.37
2022-11-22T08:25:59.606Z,13.55
2022-11-22T08:28:27.114Z,13.75
2022-11-22T08:31:06.245Z,13.74
2022-11-22T08:33:33.680Z,13.68
2022-11-22T08:36:01.084Z,13.69
2022-11-22T08:38:28.363Z,13.87
2022-11-22T08:40:58.311Z,13.88
2022-11-22T08:43:25.861Z,13.87
2022-11-22T08:45:57.458Z,13.82
2022-11-22T08:48:26.072Z,13.83
2022-11-22T08:50:55.325Z,13.94
2022-11-22T08:53:23.201Z,13.93
2022-11-22T08:55:50.545Z,13.65
2022-11-22T08:58:18.013Z,14.09
2022-11-22T09:00:45.292Z,14.15
2022-11-22T09:03:12.624Z,14.14
2022-11-22T09:08:28.885Z,13.82
2022-11-22T09:11:02.740Z,14.27
2022-11-22T09:13:30.442Z,14.42
2022-11-22T09:16:10.631Z,14.61
2022-11-22T09:18:37.749Z,14.48
2022-11-22T09:21:10.138Z,14.51
2022-11-22T09:23:37.957Z,14.61
2022-11-22T09:26:07.958Z,14.54
2022-11-22T09:28:35.768Z,14.48
2022-11-22T09:31:11.362Z,14.78
2022-11-22T09:33:40.465Z,14.88
2022-11-22T09:36:28.168Z,13.93
2022-11-22T09:38:58.880Z,14.28
2022-11-22T09:41:46.311Z,14.80
2022-11-22T09:44:24.404Z,14.55
2022-11-22T09:46:56.543Z,14.42
2022-11-22T09:49:23.754Z,14.78
2022-11-22T09:52:07.970Z,14.66
2022-11-22T09:54:40.702Z,14.78
2022-11-22T09:57:13.533Z,15.03
2022-11-22T09:59:43.801Z,15.18
2022-11-22T10:02:20.649Z,15.03
2022-11-22T10:05:00.404Z,14.98
2022-11-22T10:07:30.577Z,15.11
2022-11-22T10:10:15.259Z,14.98
2022-11-22T10:13:09.399Z,15.20
2022-11-22T10:15:39.664Z,15.45
2022-11-22T10:18:17.396Z,15.08
2022-11-22T10:20:48.832Z,15.21
2022-11-22T10:23:26.358Z,14.82
2022-11-22T10:26:21.947Z,15.02
2022-11-22T10:29:12.202Z,15.17
2022-11-22T10:31:41.871Z,15.06
2022-11-22T10:34:17.120Z,14.92
2022-11-22T10:37:13.475Z,15.09
2022-11-22T10:39:46.509Z,14.70
2022-11-22T10:42:38.490Z,14.33
2022-11-22T10:45:11.498Z,14.46
2022-11-22T10:48:07.489Z,14.48
2022-11-22T10:50:53.293Z,14.40
2022-11-22T10:53:39.458Z,14.78
2022-11-22T10:56:29.555Z,14.33
2022-11-22T10:59:25.703Z,14.17
2022-11-22T11:02:17.785Z,14.80
2022-11-22T11:04:46.084Z,14.79
2022-11-22T11:07:21.787Z,14.44
2022-11-22T11:10:26.276Z,15.19
2022-11-22T11:13:08.014Z,14.95
2022-11-22T11:15:38.625Z,14.63
2022-11-22T11:18:12.172Z,14.74
2022-11-22T11:20:42.377Z,14.15
2022-11-22T11:23:15.127Z,14.34
2022-11-22T11:25:44.713Z,14.55
2022-11-22T11:28:20.730Z,14.09
2022-11-22T11:31:08.165Z,14.35
2022-11-22T11:33:38.515Z,15.30
2022-11-22T11:36:07.435Z,14.29
2022-11-22T11:38:40.788Z,14.38
2022-11-22T11:41:38.644Z,13.92
2022-11-22T11:44:29.188Z,14.12
2022-11-22T11:46:57.659Z,14.34
2022-11-22T11:49:26.662Z,14.40
2022-11-22T11:51:55.404Z,14.65
2022-11-22T11:54:23.254Z,14.13
2022-11-22T11:57:01.439Z,14.70
2022-11-22T11:59:37.832Z,15.14
2022-11-22T12:02:23.182Z,15.05
2022-11-22T12:04:54.996Z,14.25
2022-11-22T12:07:35.066Z,14.27
2022-11-22T12:10:03.333Z,13.95
2022-11-22T12:12:45.648Z,14.13
2022-11-22T12:15:20.664Z,14.87
2022-11-22T12:18:18.080Z,14.64
2022-11-22T12:21:13.869Z,15.06
2022-11-22T12:24:13.524Z,15.46
2022-11-22T12:26:46.591Z,15.43
2022-11-22T12:29:14.816Z,14.91
2022-11-22T12:32:12.079Z,14.76
2022-11-22T12:34:42.424Z,14.38
2022-11-22T12:37:15.103Z,15.19
2022-11-22T12:39:48.249Z,15.49
2022-11-22T12:42:37.157Z,15.74
2022-11-22T12:45:39.132Z,15.72
2022-11-22T12:48:12.522Z,15.80
2022-11-22T12:51:13.559Z,16.01
2022-11-22T12:53:42.874Z,15.35
2022-11-22T12:56:10.098Z,15.79
2022-11-22T12:58:55.753Z,15.75
2022-11-22T13:01:32.420Z,16.11
2022-11-22T13:04:03.529Z,16.00
2022-11-22T13:06:45.772Z,16.12
2022-11-22T13:09:18.203Z,16.06
2022-11-22T13:11:50.934Z,15.66
2022-11-22T13:14:21.657Z,15.51
2022-11-22T13:16:51.933Z,15.73
2022-11-22T13:19:23.040Z,15.33
2022-11-22T13:22:08.941Z,15.19
2022-11-22T13:25:02.382Z,15.36
2022-11-22T13:27:32.114Z,15.78
2022-11-22T13:30:01.353Z,15.98
2022-11-22T13:32:31.999Z,16.25
2022-11-22T13:35:24.104Z,16.07
2022-11-22T13:37:54.256Z,16.03
2022-11-22T13:40:21.372Z,16.14
2022-11-22T13:42:48.572Z,16.02
2022-11-22T13:45:23.956Z,16.15
2022-11-22T13:47:51.672Z,16.20
2022-11-22T13:50:37.696Z,16.06
2022-11-22T13:53:17.166Z,16.07
2022-11-22T13:55:44.784Z,16.27
2022-11-22T13:58:23.937Z,16.23
2022-11-22T14:00:55.649Z,16.30
2022-11-22T14:03:35.280Z,16.11
2022-11-22T14:06:25.937Z,16.24
2022-11-22T14:09:36.234Z,15.53
2022-11-22T14:12:06.126Z,15.83
2022-11-22T14:14:51.147Z,15.75
2022-11-22T14:17:30.223Z,16.12
2022-11-22T14:20:22.804Z,16.24
2022-11-22T14:23:18.901Z,15.89
2022-11-22T14:25:56.225Z,16.04
2022-11-22T14:29:04.668Z,16.18
2022-11-22T14:31:33.830Z,16.05
2022-11-22T14:34:21.273Z,16.02
2022-11-22T14:37:11.694Z,16.13
2022-11-22T14:39:44.999Z,16.18
2022-11-22T14:42:37.588Z,16.22
2022-11-22T14:45:10.701Z,16.24
2022-11-22T14:47:53.250Z,15.99
2022-11-22T14:50:26.015Z,16.03
2022-11-22T14:52:55.945Z,16.11
2022-11-22T14:55:30.083Z,16.26
2022-11-22T14:58:02.753Z,16.47
2022-11-22T15:01:13.027Z,16.42
2022-11-22T15:03:48.687Z,16.10
2022-11-22T15:09:12.365Z,15.75
2022-11-22T15:09:51.036Z,16.18
2022-11-22T15:12:36.030Z,16.09
2022-11-22T15:59:42.592Z,16.02
2022-11-22T16:02:19.788Z,16.08
2022-11-22T16:06:03.470Z,15.92
2022-11-22T16:07:43.304Z,15.84
2022-11-22T16:10:16.821Z,15.99
2022-11-22T16:12:44.135Z,15.97
2022-11-22T16:15:28.228Z,15.99
2022-11-22T16:18:27.560Z,16.04
2022-11-22T16:21:13.970Z,15.11
2022-11-22T16:23:41.953Z,15.04
2022-11-22T16:26:24.964Z,15.41
2022-11-22T16:28:53.818Z,15.44
2022-11-22T16:31:31.400Z,15.63
2022-11-22T16:33:58.701Z,15.73
2022-11-22T16:36:29.274Z,15.66
2022-11-22T16:38:56.625Z,15.66
2022-11-22T16:41:28.534Z,15.74
2022-11-22T16:43:59.912Z,15.90
2022-11-22T16:46:27.460Z,15.98
2022-11-22T16:48:55.827Z,15.97
2022-11-22T16:51:25.001Z,15.95
2022-11-22T16:53:53.352Z,15.97
2022-11-22T16:56:21.614Z,16.10
2022-11-22T16:58:49.777Z,16.04
2022-11-22T17:01:20.158Z,16.06
2022-11-22T17:03:48.793Z,16.07
2022-11-22T17:06:18.970Z,15.98
2022-11-22T17:08:46.728Z,15.96
2022-11-22T17:11:16.584Z,15.91
2022-11-22T17:13:44.342Z,15.68
2022-11-22T17:16:12.536Z,15.71
2022-11-22T17:18:40.037Z,15.84
2022-11-22T17:21:16.429Z,16.07
2022-11-22T17:23:44.008Z,16.10
2022-11-22T17:26:11.402Z,16.07
2022-11-22T17:28:38.648Z,15.76
2022-11-22T17:31:12.310Z,15.33
2022-11-22T17:33:39.553Z,15.79
2022-11-22T17:36:17.591Z,15.99
2022-11-22T17:38:44.894Z,15.96
2022-11-22T17:41:12.133Z,15.92
2022-11-22T17:43:39.611Z,15.99
2022-11-22T17:46:06.892Z,15.89
2022-11-22T17:48:34.360Z,15.84
2022-11-22T17:51:11.946Z,15.96
2022-11-22T17:53:39.699Z,15.87
2022-11-22T17:56:11.393Z,15.95
2022-11-22T17:58:40.086Z,16.01
2022-11-22T18:01:10.943Z,16.06
2022-11-22T18:03:39.901Z,16.09
2022-11-22T18:06:07.889Z,15.90
2022-11-22T18:08:35.337Z,15.96
2022-11-22T18:11:02.951Z,15.99
2022-11-22T18:13:33.427Z,15.90
2022-11-22T18:16:03.694Z,15.64
2022-11-22T18:21:19.862Z,15.79
2022-11-22T18:23:47.048Z,15.87
2022-11-22T18:26:38.395Z,15.81
2022-11-22T18:31:53.129Z,15.95
2022-11-22T18:34:21.670Z,15.90
2022-11-22T18:39:39.090Z,15.70
2022-11-22T18:42:10.949Z,15.68
2022-11-22T18:44:38.316Z,15.66
2022-11-22T18:47:05.675Z,15.59
2022-11-22T18:49:33.324Z,15.67
2022-11-22T18:52:00.836Z,15.68
2022-11-22T18:54:28.099Z,15.59
2022-11-22T18:56:55.376Z,15.64
2022-11-22T18:59:23.147Z,15.57
2022-11-22T19:01:50.331Z,15.78
2022-11-22T19:04:17.607Z,15.63
2022-11-22T19:06:45.098Z,15.72
2022-11-22T19:09:12.314Z,15.63
2022-11-22T19:11:40.187Z,15.67
2022-11-22T19:14:07.822Z,15.56
2022-11-22T19:16:35.167Z,15.51
2022-11-22T19:19:02.428Z,15.65
2022-11-22T19:21:30.309Z,15.57
2022-11-22T19:23:57.660Z,15.33
2022-11-22T19:26:27.282Z,15.56
2022-11-22T19:28:56.507Z,15.55
2022-11-22T19:31:25.956Z,15.45
2022-11-22T19:33:53.574Z,15.48
2022-11-22T19:36:26.360Z,15.48
2022-11-22T19:38:58.490Z,15.54
2022-11-22T19:41:26.799Z,15.50
2022-11-22T19:43:55.881Z,15.43
2022-11-22T19:46:23.936Z,15.57
2022-11-22T19:48:52.213Z,15.45
2022-11-22T19:51:19.784Z,15.45
2022-11-22T19:53:47.014Z,15.57
2022-11-22T19:56:16.534Z,15.52
2022-11-22T19:58:44.754Z,15.52
2022-11-22T20:01:13.330Z,15.51
2022-11-22T20:03:41.858Z,15.54
2022-11-22T20:06:11.840Z,15.63
2022-11-22T20:08:39.593Z,15.46
2022-11-22T20:11:12.773Z,15.41
2022-11-22T20:13:42.651Z,15.23
2022-11-22T20:16:14.061Z,15.37
2022-11-22T20:18:41.349Z,15.35
2022-11-22T20:21:10.258Z,15.35
2022-11-22T20:23:38.490Z,15.43
2022-11-22T20:26:11.915Z,15.37
2022-11-22T20:28:39.870Z,15.33
2022-11-22T20:31:15.168Z,15.42
2022-11-22T20:33:44.352Z,15.41
2022-11-22T20:36:14.053Z,15.40
2022-11-22T20:38:42.543Z,15.37
2022-11-22T20:41:11.398Z,15.37
2022-11-22T20:43:38.783Z,15.41
2022-11-22T20:46:08.811Z,15.21
2022-11-22T20:48:38.003Z,15.30
2022-11-22T20:51:08.116Z,15.39
2022-11-22T20:53:35.369Z,15.29
2022-11-22T20:56:04.420Z,15.36
2022-11-22T20:58:32.560Z,15.30
2022-11-22T21:01:00.192Z,15.29
2022-11-22T21:03:27.470Z,15.34
2022-11-22T21:05:55.379Z,15.27
2022-11-22T21:08:23.056Z,15.29
2022-11-22T21:10:50.345Z,15.24
2022-11-22T21:13:17.662Z,15.21
2022-11-22T21:15:45.091Z,15.16
2022-11-22T21:18:27.600Z,15.16
2022-11-22T21:20:55.105Z,15.00
2022-11-22T21:23:22.262Z,15.08
2022-11-22T21:25:50.505Z,15.12
2022-11-22T21:28:17.868Z,15.26
2022-11-22T21:30:45.151Z,15.23
2022-11-22T21:33:12.332Z,15.40
2022-11-22T21:35:39.647Z,15.19
2022-11-22T21:38:07.089Z,15.14
2022-11-22T21:40:34.327Z,15.23
2022-11-22T21:43:01.506Z,15.16
2022-11-22T21:45:28.795Z,15.02
2022-11-22T21:47:56.115Z,15.03
2022-11-22T21:50:23.391Z,14.88
2022-11-22T21:52:50.595Z,15.11
2022-11-22T21:55:17.798Z,14.78
2022-11-22T21:57:44.973Z,14.28
2022-11-22T22:00:12.823Z,14.56
2022-11-22T22:02:40.044Z,14.70
2022-11-22T22:05:07.823Z,14.65
2022-11-22T22:07:52.266Z,14.61
2022-11-22T22:10:20.444Z,14.64
2022-11-22T22:12:50.873Z,14.75
2022-11-22T22:15:18.698Z,14.75
2022-11-22T22:17:45.961Z,14.83
2022-11-22T22:20:13.415Z,14.98
2022-11-22T22:22:40.665Z,14.90
2022-11-22T22:25:08.323Z,14.89
2022-11-22T22:27:39.078Z,14.84
2022-11-22T22:30:08.088Z,14.91
2022-11-22T22:32:35.954Z,14.78
2022-11-22T22:35:05.681Z,14.91
2022-11-22T22:37:35.189Z,14.72
2022-11-22T22:40:02.681Z,14.83
2022-11-22T22:42:29.930Z,14.66
2022-11-22T22:44:57.189Z,14.80
2022-11-22T22:47:24.520Z,14.84
2022-11-22T22:49:51.776Z,14.86
2022-11-22T22:52:19.007Z,14.79
2022-11-22T22:54:46.204Z,14.77
2022-11-22T22:57:13.428Z,14.78
2022-11-22T22:59:41.781Z,14.75
2022-11-22T23:02:08.942Z,14.69
2022-11-22T23:04:37.447Z,14.72
2022-11-22T23:07:04.678Z,14.75
2022-11-22T23:09:32.285Z,14.68
2022-11-22T23:12:11.768Z,14.61
2022-11-22T23:14:39.920Z,14.55
2022-11-22T23:17:08.599Z,14.68
2022-11-22T23:19:35.810Z,14.60
2022-11-22T23:22:03.361Z,14.65
2022-11-22T23:24:32.280Z,14.55
2022-11-22T23:26:59.844Z,14.37
2022-11-22T23:29:27.360Z,14.36
2022-11-22T23:31:54.628Z,14.54
2022-11-22T23:34:21.911Z,14.47
2022-11-22T23:36:49.169Z,14.34
2022-11-22T23:39:16.428Z,14.30
2022-11-22T23:41:45.040Z,14.30
2022-11-22T23:44:12.339Z,14.47
2022-11-22T23:46:39.644Z,14.25
2022-11-22T23:49:06.904Z,13.46
2022-11-22T23:51:35.336Z,12.44
2022-11-22T23:54:05.212Z,12.11
2022-11-22T23:56:34.430Z,12.94
2022-11-22T23:59:02.264Z,12.76
